createdAt,value
2022-09-06T00:12:46.218Z,11
2022-09-06T00:41:30.058Z,11
2022-09-06T01:10:17.118Z,10
2022-09-06T01:38:51.942Z,13
2022-09-06T02:07:37.400Z,11
2022-09-06T02:36:25.213Z,11
2022-09-06T03:05:01.188Z,11
2022-09-06T03:33:48.666Z,11
2022-09-06T04:02:34.637Z,10
2022-09-06T04:31:09.492Z,11
2022-09-06T04:59:59.300Z,13
2022-09-06T05:28:35.632Z,12
2022-09-06T05:57:07.329Z,14
2022-09-06T06:25:37.428Z,14
2022-09-06T06:54:21.242Z,13
2022-09-06T07:22:51.620Z,12
2022-09-06T07:51:17.747Z,11
2022-09-06T08:19:35.691Z,14
2022-09-06T08:48:02.459Z,13
2022-09-06T09:16:27.731Z,12
2022-09-06T09:44:59.151Z,12
2022-09-06T10:13:46.308Z,13
2022-09-06T10:42:04.745Z,9
2022-09-06T11:10:31.257Z,9
2022-09-06T11:38:56.341Z,7
2022-09-06T12:07:47.106Z,7
2022-09-06T12:36:09.436Z,4
2022-09-06T13:04:48.103Z,7
2022-09-06T13:33:06.753Z,8
2022-09-06T14:01:31.163Z,7
2022-09-06T14:30:02.212Z,8
2022-09-06T14:58:19.254Z,7
2022-09-06T15:26:44.494Z,7
2022-09-06T15:55:15.729Z,7
2022-09-06T16:23:35.000Z,6
2022-09-06T16:52:07.557Z,5
2022-09-06T17:20:42.309Z,5
2022-09-06T17:49:10.486Z,4
2022-09-06T18:17:27.335Z,4
2022-09-06T18:45:52.041Z,4
2022-09-06T19:14:20.147Z,4
2022-09-06T19:42:54.102Z,3
2022-09-06T20:11:27.881Z,3
2022-09-06T20:39:58.690Z,3
2022-09-06T21:08:39.429Z,3
2022-09-06T21:36:56.338Z,4
2022-09-06T22:05:36.525Z,5
2022-09-06T22:34:20.475Z,4
2022-09-06T23:03:04.665Z,4
2022-09-06T23:31:44.811Z,4
